createdAt,value
2018-01-31T01:53:36.805Z,5.77
2018-01-31T01:56:04.570Z,5.77
2018-01-31T01:58:32.186Z,5.76
2018-01-31T02:00:59.732Z,5.73
2018-01-31T02:03:27.414Z,5.69
2018-01-31T02:05:55.032Z,5.66
2018-01-31T02:08:22.607Z,5.55
2018-01-31T02:10:50.141Z,5.48
2018-01-31T02:13:17.885Z,5.42
2018-01-31T02:15:45.464Z,5.39
2018-01-31T02:18:13.033Z,5.41
2018-01-31T02:20:40.550Z,5.42
2018-01-31T02:23:08.158Z,5.45
2018-01-31T02:25:35.845Z,5.54
2018-01-31T02:28:03.849Z,5.61
2018-01-31T02:30:31.720Z,5.60
2018-01-31T02:32:59.331Z,5.55
2018-01-31T02:35:26.961Z,5.51
2018-01-31T02:37:54.574Z,5.48
2018-01-31T02:40:22.161Z,5.45
2018-01-31T02:42:49.802Z,5.35
2018-01-31T02:45:17.520Z,5.27
2018-01-31T02:47:45.049Z,5.19
2018-01-31T02:50:12.578Z,5.16
2018-01-31T02:52:40.150Z,5.13
2018-01-31T02:55:07.675Z,5.21
2018-01-31T02:57:35.252Z,5.20
2018-01-31T03:00:02.933Z,5.19
2018-01-31T03:02:30.643Z,5.18
2018-01-31T03:04:58.181Z,5.16
2018-01-31T03:07:25.696Z,4.99
2018-01-31T03:09:53.406Z,5.03
2018-01-31T03:12:21.013Z,4.95
2018-01-31T03:14:48.537Z,5.00
2018-01-31T03:17:16.953Z,4.98
2018-01-31T03:19:44.480Z,4.98
2018-01-31T03:22:13.093Z,4.97
2018-01-31T03:24:40.613Z,4.99
2018-01-31T03:27:08.226Z,5.04
2018-01-31T03:29:35.765Z,5.08
2018-01-31T03:32:03.366Z,5.13
2018-01-31T03:34:30.940Z,5.09
2018-01-31T03:36:58.457Z,5.05
2018-01-31T03:39:26.225Z,5.03
2018-01-31T03:41:53.760Z,5.06
2018-01-31T03:44:21.562Z,5.01
2018-01-31T03:46:49.137Z,4.97
2018-01-31T03:49:16.661Z,4.94
2018-01-31T03:51:44.414Z,4.98
2018-01-31T03:54:12.099Z,4.97
2018-01-31T03:56:39.621Z,4.93
2018-01-31T03:59:07.193Z,4.92
2018-01-31T04:01:34.985Z,4.90
2018-01-31T04:04:02.662Z,4.89
2018-01-31T04:06:30.207Z,4.88
2018-01-31T04:08:57.838Z,4.88
2018-01-31T04:11:25.457Z,4.85
2018-01-31T04:13:53.077Z,4.87
2018-01-31T04:16:20.637Z,4.83
2018-01-31T04:18:48.194Z,4.82
2018-01-31T04:21:15.909Z,4.77
2018-01-31T04:23:43.485Z,4.74
2018-01-31T04:26:11.265Z,4.72
2018-01-31T04:28:38.826Z,4.75
2018-01-31T04:31:06.601Z,4.75
2018-01-31T04:33:34.141Z,4.71
2018-01-31T04:36:01.705Z,4.72
2018-01-31T04:38:29.354Z,4.74
2018-01-31T04:40:56.869Z,4.72
2018-01-31T04:43:24.590Z,4.72
2018-01-31T04:45:52.300Z,4.70
2018-01-31T04:48:20.026Z,4.65
2018-01-31T04:50:47.635Z,4.71
2018-01-31T04:53:15.173Z,4.70
2018-01-31T04:55:42.779Z,4.57
2018-01-31T04:58:10.614Z,4.72
2018-01-31T05:00:38.318Z,4.71
2018-01-31T05:03:05.925Z,4.75
2018-01-31T05:05:33.646Z,4.71
2018-01-31T05:08:01.471Z,4.69
2018-01-31T05:10:29.054Z,4.66
2018-01-31T05:12:56.697Z,4.64
2018-01-31T05:15:24.261Z,4.56
2018-01-31T05:17:51.837Z,4.51
2018-01-31T05:20:19.660Z,4.47
2018-01-31T05:22:47.207Z,4.40
2018-01-31T05:25:14.804Z,4.36
2018-01-31T05:27:42.429Z,4.42
2018-01-31T05:30:10.085Z,4.38
2018-01-31T05:32:37.617Z,4.37
2018-01-31T05:35:05.258Z,4.35
2018-01-31T05:37:32.809Z,4.34
2018-01-31T05:40:00.340Z,4.31
2018-01-31T05:42:28.120Z,4.29
2018-01-31T05:44:55.812Z,4.28
2018-01-31T05:47:23.349Z,4.26
2018-01-31T05:49:50.965Z,4.21
2018-01-31T05:52:18.585Z,4.27
2018-01-31T05:54:46.403Z,4.32
2018-01-31T05:57:13.937Z,4.39
2018-01-31T05:59:41.550Z,4.47
2018-01-31T06:02:09.158Z,4.53
2018-01-31T06:04:36.737Z,4.63
2018-01-31T06:07:04.494Z,4.70
2018-01-31T06:09:32.247Z,4.78
2018-01-31T06:11:59.793Z,4.96
2018-01-31T06:14:27.445Z,5.10
2018-01-31T06:16:55.214Z,5.21
2018-01-31T06:19:23.014Z,5.34
2018-01-31T06:21:50.541Z,5.43
2018-01-31T06:24:18.065Z,5.42
2018-01-31T06:26:45.735Z,5.39
2018-01-31T06:29:13.408Z,5.45
2018-01-31T06:31:41.284Z,5.52
2018-01-31T06:34:08.825Z,5.58
2018-01-31T06:36:36.407Z,5.60
2018-01-31T06:39:04.233Z,5.61
2018-01-31T06:41:31.765Z,5.62
2018-01-31T06:43:59.469Z,5.59
2018-01-31T06:46:27.081Z,5.55
2018-01-31T06:48:54.706Z,5.56
2018-01-31T06:51:22.302Z,5.64
2018-01-31T06:53:50.236Z,5.75
2018-01-31T06:56:17.964Z,5.86
2018-01-31T06:58:45.671Z,5.97
2018-01-31T07:01:13.233Z,6.07
2018-01-31T07:03:40.770Z,6.23
2018-01-31T07:06:08.298Z,6.41
2018-01-31T07:08:35.889Z,6.60
2018-01-31T07:11:03.704Z,7.05
2018-01-31T07:13:31.243Z,8.36
2018-01-31T07:15:58.781Z,8.92
2018-01-31T07:18:26.310Z,8.96
2018-01-31T07:20:53.942Z,9.11
2018-01-31T07:23:21.466Z,9.80
2018-01-31T07:25:48.997Z,11.30
2018-01-31T07:28:16.792Z,13.28
2018-01-31T07:30:44.410Z,15.00
2018-01-31T07:33:12.037Z,16.10
2018-01-31T07:35:39.737Z,16.59
2018-01-31T07:38:07.556Z,16.99
2018-01-31T07:40:35.383Z,17.89
2018-01-31T07:43:02.945Z,18.68
2018-01-31T07:45:30.509Z,18.95
2018-01-31T07:47:58.683Z,19.05
2018-01-31T07:50:26.358Z,19.08
2018-01-31T07:52:53.966Z,18.68
2018-01-31T07:55:22.029Z,18.25
2018-01-31T07:57:50.220Z,18.14
2018-01-31T08:00:17.824Z,18.18
2018-01-31T08:02:45.410Z,17.91
2018-01-31T08:05:13.268Z,17.83
2018-01-31T08:07:41.127Z,17.65
2018-01-31T08:10:09.006Z,17.12
2018-01-31T08:12:37.116Z,16.57
2018-01-31T08:15:04.877Z,16.56
2018-01-31T08:17:32.553Z,16.69
2018-01-31T08:20:00.214Z,17.35
2018-01-31T08:22:27.968Z,17.98
2018-01-31T08:24:55.619Z,18.13
2018-01-31T08:27:23.224Z,18.90
2018-01-31T08:29:51.153Z,19.40
2018-01-31T08:32:18.834Z,19.59
2018-01-31T08:34:46.372Z,19.88
2018-01-31T08:37:14.007Z,20.11
2018-01-31T08:39:41.581Z,20.15
2018-01-31T08:42:09.516Z,20.68
2018-01-31T08:44:37.262Z,19.92
2018-01-31T08:47:05.179Z,18.92
2018-01-31T08:49:32.894Z,17.68
2018-01-31T08:52:00.521Z,16.96
2018-01-31T08:54:28.125Z,16.56
2018-01-31T08:56:55.771Z,16.36
2018-01-31T08:59:23.317Z,16.50
2018-01-31T09:01:50.860Z,17.20
2018-01-31T09:04:18.503Z,17.35
2018-01-31T09:06:46.118Z,17.13
2018-01-31T09:09:13.888Z,16.43
2018-01-31T09:11:41.821Z,16.81
2018-01-31T09:14:09.457Z,17.53
2018-01-31T09:16:37.319Z,17.98
2018-01-31T09:19:05.237Z,17.48
2018-01-31T09:21:32.814Z,17.92
2018-01-31T09:24:00.442Z,18.36
2018-01-31T09:26:28.037Z,18.77
2018-01-31T09:28:55.578Z,19.09
2018-01-31T09:31:23.105Z,18.77
2018-01-31T09:33:50.637Z,17.50
2018-01-31T09:36:19.242Z,16.75
2018-01-31T09:38:46.957Z,17.52
2018-01-31T09:41:14.481Z,17.11
2018-01-31T09:43:42.222Z,17.31
2018-01-31T09:46:10.010Z,17.78
2018-01-31T09:48:37.537Z,17.60
2018-01-31T09:51:05.189Z,17.38
2018-01-31T09:53:32.735Z,18.04
2018-01-31T09:56:00.325Z,18.07
2018-01-31T09:58:27.853Z,18.47
2018-01-31T10:00:55.523Z,18.94
2018-01-31T10:03:23.558Z,19.30
2018-01-31T10:05:51.159Z,19.58
2018-01-31T10:08:18.706Z,19.37
2018-01-31T10:10:46.325Z,18.64
2018-01-31T10:13:13.841Z,17.95
2018-01-31T10:15:41.522Z,17.52
2018-01-31T10:18:09.051Z,17.70
2018-01-31T10:20:36.582Z,18.00
2018-01-31T10:23:04.130Z,17.89
2018-01-31T10:25:31.655Z,17.76
2018-01-31T10:27:59.431Z,17.56
2018-01-31T10:30:26.958Z,17.80
2018-01-31T10:32:54.658Z,17.81
2018-01-31T10:35:26.151Z,17.44
2018-01-31T10:37:53.872Z,17.18
2018-01-31T10:40:21.898Z,17.74
2018-01-31T10:42:49.431Z,18.10
2018-01-31T10:45:17.159Z,18.26
2018-01-31T10:47:45.638Z,18.33
2018-01-31T10:50:13.171Z,18.77
2018-01-31T10:52:40.745Z,18.90
2018-01-31T10:57:36.253Z,19.72
2018-01-31T11:00:03.833Z,19.22
2018-01-31T11:02:31.588Z,18.84
2018-01-31T11:04:59.235Z,19.14
2018-01-31T11:07:26.762Z,19.22
2018-01-31T11:09:54.452Z,18.63
2018-01-31T11:12:22.058Z,18.30
2018-01-31T11:14:49.779Z,18.80
2018-01-31T11:17:18.499Z,19.49
2018-01-31T11:19:46.058Z,20.14
2018-01-31T11:22:13.735Z,20.63
2018-01-31T11:24:41.285Z,20.78
2018-01-31T11:27:08.814Z,20.09
2018-01-31T11:29:36.378Z,20.67
2018-01-31T11:32:03.967Z,21.14
2018-01-31T11:34:31.489Z,21.32
2018-01-31T11:36:59.026Z,21.07
2018-01-31T11:39:26.658Z,21.66
2018-01-31T11:41:54.238Z,21.54
2018-01-31T11:44:21.798Z,21.87
2018-01-31T11:46:49.321Z,22.24
2018-01-31T11:49:16.910Z,22.44
2018-01-31T11:51:44.434Z,22.56
2018-01-31T11:54:12.013Z,22.81
2018-01-31T11:56:39.545Z,22.99
2018-01-31T11:59:07.249Z,22.21
2018-01-31T12:01:35.018Z,22.52
2018-01-31T12:04:02.550Z,23.17
2018-01-31T12:06:30.126Z,23.43
2018-01-31T12:08:57.907Z,23.18
2018-01-31T12:11:25.431Z,22.55
2018-01-31T12:14:17.624Z,22.58
2018-01-31T12:16:57.157Z,22.38
2018-01-31T12:19:41.389Z,23.17
2018-01-31T12:22:20.742Z,23.24
2018-01-31T12:25:00.248Z,23.12
2018-01-31T12:27:39.944Z,23.21
2018-01-31T12:30:19.102Z,23.50
2018-01-31T12:32:58.555Z,23.96
2018-01-31T12:35:37.986Z,23.82
2018-01-31T12:38:17.398Z,23.96
2018-01-31T12:40:44.402Z,24.25
2018-01-31T12:43:12.285Z,24.22
2018-01-31T12:45:39.452Z,24.44
2018-01-31T12:51:14.918Z,24.47
2018-01-31T12:53:54.324Z,24.35
2018-01-31T12:56:27.878Z,24.62
2018-01-31T12:59:07.431Z,24.36
2018-01-31T13:01:55.577Z,24.86
2018-01-31T13:04:35.079Z,25.13
2018-01-31T13:07:14.394Z,25.15
2018-01-31T13:09:53.697Z,24.12
2018-01-31T13:12:33.061Z,23.78
2018-01-31T13:15:12.200Z,23.86
2018-01-31T13:17:51.526Z,23.31
2018-01-31T13:20:30.874Z,23.10
2018-01-31T13:23:00.166Z,23.58
2018-01-31T13:25:39.660Z,22.89
2018-01-31T13:28:24.862Z,22.64
2018-01-31T13:34:11.627Z,22.45
2018-01-31T13:36:50.862Z,22.50
2018-01-31T13:39:30.210Z,22.15
2018-01-31T13:42:09.699Z,22.14
2018-01-31T13:44:49.156Z,22.05
2018-01-31T13:47:28.275Z,22.29
2018-01-31T13:53:10.282Z,22.63
2018-01-31T13:55:49.690Z,22.99
2018-01-31T13:58:29.045Z,23.14
2018-01-31T14:04:09.518Z,21.98
2018-01-31T14:06:48.861Z,21.85
2018-01-31T14:12:33.390Z,21.69
2018-01-31T14:15:12.653Z,21.89
2018-01-31T14:17:52.205Z,22.25
2018-01-31T14:20:30.631Z,22.10
2018-01-31T14:23:10.082Z,21.46
2018-01-31T14:25:49.586Z,21.59
2018-01-31T14:28:28.895Z,21.47
2018-01-31T14:34:13.070Z,21.00
2018-01-31T14:36:40.074Z,20.88
2018-01-31T14:39:07.077Z,21.08
2018-01-31T14:41:34.206Z,21.12
2018-01-31T14:44:01.262Z,20.98
2018-01-31T14:46:28.254Z,21.00
2018-01-31T14:48:55.301Z,20.51
2018-01-31T14:51:22.301Z,19.47
2018-01-31T14:53:49.316Z,18.58
2018-01-31T14:56:16.489Z,17.85
2018-01-31T14:58:43.478Z,17.34
2018-01-31T15:01:10.517Z,16.58
2018-01-31T15:03:37.509Z,15.67
2018-01-31T15:06:04.558Z,14.73
2018-01-31T15:08:31.546Z,14.15
2018-01-31T15:10:58.542Z,13.77
2018-01-31T15:13:25.548Z,13.40
2018-01-31T15:15:52.623Z,12.99
2018-01-31T15:18:19.625Z,12.61
2018-01-31T15:20:46.618Z,12.41
2018-01-31T15:23:13.822Z,12.21
2018-01-31T15:25:40.871Z,12.04
2018-01-31T15:28:08.056Z,11.90
2018-01-31T15:30:35.058Z,11.70
2018-01-31T15:33:02.118Z,11.42
2018-01-31T15:35:29.146Z,11.30
2018-01-31T15:37:56.139Z,11.17
2018-01-31T15:40:23.376Z,11.07
2018-01-31T15:42:50.367Z,11.01
2018-01-31T15:45:17.607Z,10.86
2018-01-31T15:47:44.612Z,10.67
2018-01-31T15:50:11.659Z,10.49
2018-01-31T15:52:38.883Z,10.38
2018-01-31T15:55:05.886Z,10.31
2018-01-31T15:57:32.890Z,10.16
2018-01-31T15:59:59.890Z,10.06
2018-01-31T16:02:27.078Z,9.91
2018-01-31T16:04:54.079Z,9.83
2018-01-31T16:07:21.250Z,9.71
2018-01-31T16:09:48.375Z,9.62
2018-01-31T16:12:15.367Z,9.57
2018-01-31T16:14:42.366Z,9.52
2018-01-31T16:17:09.952Z,9.42
2018-01-31T16:19:49.375Z,9.34
2018-01-31T16:22:17.094Z,9.21
2018-01-31T16:24:44.654Z,9.14
2018-01-31T16:27:23.154Z,9.01
2018-01-31T16:30:03.303Z,8.98
2018-01-31T16:32:42.757Z,8.94
2018-01-31T16:35:10.303Z,8.93
2018-01-31T16:37:37.837Z,8.81
2018-01-31T16:40:05.434Z,8.69
2018-01-31T16:42:33.159Z,8.62
2018-01-31T16:45:00.725Z,8.60
2018-01-31T16:47:28.407Z,8.56
2018-01-31T16:49:55.992Z,8.52
2018-01-31T16:52:23.536Z,8.51
2018-01-31T16:54:51.073Z,8.44
2018-01-31T16:57:18.805Z,8.36
2018-01-31T16:59:46.342Z,8.32
2018-01-31T17:02:13.878Z,8.26
2018-01-31T17:04:41.445Z,8.21
2018-01-31T17:07:09.010Z,8.17
2018-01-31T17:09:36.606Z,8.11
2018-01-31T17:12:04.164Z,8.01
2018-01-31T17:14:31.786Z,7.95
2018-01-31T17:16:59.317Z,7.81
2018-01-31T17:19:27.029Z,7.72
2018-01-31T17:21:54.573Z,7.76
2018-01-31T17:24:22.114Z,7.66
2018-01-31T17:26:49.658Z,7.62
2018-01-31T17:29:17.205Z,7.55
2018-01-31T17:31:44.919Z,7.51
2018-01-31T17:34:12.634Z,7.48
2018-01-31T17:36:40.174Z,7.49
2018-01-31T17:39:07.773Z,7.42
2018-01-31T17:41:35.386Z,7.36
2018-01-31T17:44:02.942Z,7.28
2018-01-31T17:46:30.626Z,7.23
2018-01-31T17:48:58.439Z,7.21
2018-01-31T17:51:25.978Z,7.18
2018-01-31T17:53:53.514Z,7.17
2018-01-31T17:56:21.187Z,7.16
2018-01-31T17:58:48.722Z,7.10
2018-01-31T18:01:16.294Z,7.06
2018-01-31T18:03:43.832Z,7.01
2018-01-31T18:06:11.571Z,6.92
2018-01-31T18:08:39.102Z,6.87
2018-01-31T18:11:06.666Z,6.81
2018-01-31T18:13:34.417Z,6.67
2018-01-31T18:16:01.959Z,6.67
2018-01-31T18:18:29.554Z,6.58
2018-01-31T18:20:57.162Z,6.53
2018-01-31T18:23:24.703Z,6.54
2018-01-31T18:25:52.414Z,6.43
2018-01-31T18:28:20.019Z,6.45
2018-01-31T18:30:47.561Z,6.40
2018-01-31T18:33:15.099Z,6.41
2018-01-31T18:35:42.878Z,6.31
2018-01-31T18:38:10.498Z,6.09
2018-01-31T18:40:38.108Z,6.07
2018-01-31T18:43:05.649Z,6.05
2018-01-31T18:45:33.191Z,6.00
2018-01-31T18:48:00.783Z,5.94
2018-01-31T18:50:28.322Z,5.80
2018-01-31T18:52:56.105Z,5.85
2018-01-31T18:55:23.658Z,5.82
2018-01-31T18:57:51.198Z,5.79
2018-01-31T19:00:18.749Z,5.75
2018-01-31T19:02:46.373Z,5.77
2018-01-31T19:05:13.982Z,5.80
2018-01-31T19:07:41.709Z,5.79
2018-01-31T19:10:09.246Z,5.70
2018-01-31T19:12:36.865Z,5.62
2018-01-31T19:15:04.399Z,5.62
2018-01-31T19:17:31.959Z,5.53
2018-01-31T19:19:59.502Z,5.47
2018-01-31T19:22:27.085Z,5.43
2018-01-31T19:24:54.622Z,5.41
2018-01-31T19:27:22.150Z,5.31
2018-01-31T19:29:49.690Z,5.23
2018-01-31T19:32:17.394Z,5.12
2018-01-31T19:34:44.962Z,5.06
2018-01-31T19:37:12.550Z,5.15
2018-01-31T19:39:40.134Z,5.20
2018-01-31T19:42:07.666Z,5.08
2018-01-31T19:44:35.315Z,5.11
2018-01-31T19:47:02.857Z,5.06
2018-01-31T19:49:30.419Z,4.92
2018-01-31T19:51:57.958Z,4.78
2018-01-31T19:54:25.486Z,4.83
2018-01-31T19:56:53.078Z,4.70
2018-01-31T19:59:20.613Z,4.63
2018-01-31T20:01:48.238Z,4.62
2018-01-31T20:04:15.967Z,4.58
2018-01-31T20:06:43.507Z,4.61
2018-01-31T20:09:11.293Z,4.54
2018-01-31T20:11:38.914Z,4.45
2018-01-31T20:14:06.497Z,4.46
2018-01-31T20:16:34.086Z,4.42
2018-01-31T20:19:01.617Z,4.37
2018-01-31T20:21:29.160Z,4.28
2018-01-31T20:23:56.733Z,4.23
2018-01-31T20:26:24.418Z,4.18
2018-01-31T20:28:52.235Z,4.11
2018-01-31T20:31:19.794Z,4.01
2018-01-31T20:33:47.334Z,3.93
2018-01-31T20:36:15.089Z,3.97
2018-01-31T20:38:42.722Z,3.93
2018-01-31T20:41:10.258Z,4.00
2018-01-31T20:43:38.044Z,3.89
2018-01-31T20:46:05.770Z,3.89
2018-01-31T20:48:33.309Z,3.91
2018-01-31T20:51:00.850Z,3.85
2018-01-31T20:53:28.615Z,3.81
2018-01-31T20:55:56.206Z,3.83
2018-01-31T20:58:23.845Z,3.80
2018-01-31T21:00:51.475Z,3.86
2018-01-31T21:03:19.026Z,3.84
2018-01-31T21:05:46.806Z,3.83
2018-01-31T21:08:14.373Z,3.83
2018-01-31T21:10:41.910Z,3.82
2018-01-31T21:13:09.494Z,3.84
2018-01-31T21:15:37.046Z,3.86
2018-01-31T21:18:04.579Z,3.83
2018-01-31T21:20:32.125Z,3.85
2018-01-31T21:22:59.829Z,3.79
2018-01-31T21:25:27.373Z,3.71
2018-01-31T21:27:55.072Z,3.67
2018-01-31T21:30:22.734Z,3.71
2018-01-31T21:32:50.262Z,3.65
2018-01-31T21:35:17.786Z,3.68
2018-01-31T21:37:45.346Z,3.66
2018-01-31T21:40:13.060Z,3.66
2018-01-31T21:42:40.693Z,3.66
2018-01-31T21:45:08.284Z,3.66
2018-01-31T21:47:35.814Z,3.67
2018-01-31T21:50:03.747Z,3.59
2018-01-31T21:52:31.308Z,3.48
2018-01-31T21:54:58.951Z,3.49
2018-01-31T22:00:28.281Z,3.44
2018-01-31T22:02:55.807Z,3.37
2018-01-31T22:05:23.389Z,3.35
2018-01-31T22:07:50.924Z,3.38
2018-01-31T22:10:18.587Z,3.32
2018-01-31T22:12:46.130Z,3.30
2018-01-31T22:15:13.924Z,3.27
2018-01-31T22:17:41.462Z,3.25
2018-01-31T22:20:08.994Z,3.27
2018-01-31T22:22:36.611Z,3.27
2018-01-31T22:25:04.294Z,3.22
2018-01-31T22:27:31.835Z,3.19
2018-01-31T22:29:59.531Z,3.19
2018-01-31T22:32:27.351Z,3.21
2018-01-31T22:34:54.961Z,3.20
2018-01-31T22:37:22.634Z,3.22
2018-01-31T22:39:50.165Z,3.22
2018-01-31T22:42:17.706Z,3.30
2018-01-31T22:44:45.237Z,3.37
2018-01-31T22:47:13.003Z,3.46
2018-01-31T22:49:40.526Z,3.51
2018-01-31T22:52:08.055Z,3.56
2018-01-31T22:54:35.763Z,3.62
2018-01-31T22:57:03.490Z,3.61
2018-01-31T22:59:31.186Z,3.64
2018-01-31T23:01:58.876Z,3.67
2018-01-31T23:04:26.404Z,3.66
2018-01-31T23:06:53.938Z,3.65
2018-01-31T23:09:21.469Z,3.62
2018-01-31T23:11:49.081Z,3.59
2018-01-31T23:14:22.418Z,3.62
2018-01-31T23:16:50.038Z,3.57
2018-01-31T23:19:17.565Z,3.67
2018-01-31T23:21:45.158Z,3.64
2018-01-31T23:24:12.766Z,3.63
2018-01-31T23:26:40.358Z,3.59
2018-01-31T23:29:07.906Z,3.63
2018-01-31T23:31:35.454Z,3.69
2018-01-31T23:34:02.985Z,3.73
2018-01-31T23:36:30.514Z,3.78
2018-01-31T23:38:58.055Z,3.84
2018-01-31T23:41:25.586Z,3.81
2018-01-31T23:43:53.158Z,3.88
2018-01-31T23:46:20.686Z,3.92
2018-01-31T23:48:48.440Z,4.09
2018-01-31T23:51:17.233Z,4.23
2018-01-31T23:53:44.942Z,4.28
2018-01-31T23:56:12.497Z,4.30
2018-01-31T23:58:40.086Z,4.32
